createdAt,value
2016-11-01T00:00:02.183Z,1007.33
2016-11-01T00:01:12.476Z,1007.28
2016-11-01T00:02:22.761Z,1007.32
2016-11-01T00:03:32.429Z,1007.28
2016-11-01T00:04:42.408Z,1007.29
2016-11-01T00:05:52.397Z,1007.31
2016-11-01T00:07:02.677Z,1007.26
2016-11-01T00:08:12.975Z,1007.27
2016-11-01T00:09:23.296Z,1007.27
2016-11-01T00:10:33.607Z,1007.22
2016-11-01T00:11:43.920Z,1007.22
2016-11-01T00:12:53.911Z,1007.14
2016-11-01T00:14:04.199Z,1007.16
2016-11-01T00:15:14.500Z,1007.17
2016-11-01T00:16:24.177Z,1007.17
2016-11-01T00:17:34.147Z,1007.14
2016-11-01T00:18:43.829Z,1007.14
2016-11-01T00:19:53.173Z,1007.1
2016-11-01T00:21:03.492Z,1007.12
2016-11-01T00:22:13.494Z,1007.07
2016-11-01T00:23:23.784Z,1007.12
2016-11-01T00:24:34.082Z,1007.09
2016-11-01T00:25:44.069Z,1007.08
2016-11-01T00:26:54.356Z,1007.11
2016-11-01T00:28:04.652Z,1007.1
2016-11-01T00:29:14.929Z,1007.11
2016-11-01T00:30:24.606Z,1007.1
2016-11-01T00:31:34.892Z,1007.08
2016-11-01T00:32:44.870Z,1007.09
2016-11-01T00:33:55.161Z,1007.05
2016-11-01T00:35:05.183Z,1007.08
2016-11-01T00:36:15.475Z,1007.07
2016-11-01T00:37:25.461Z,1007.08
2016-11-01T00:38:35.488Z,1007.11
2016-11-01T00:39:45.469Z,1007.11
2016-11-01T00:40:55.462Z,1007.15
2016-11-01T00:42:05.755Z,1007.14
2016-11-01T00:43:16.040Z,1007.12
2016-11-01T00:44:25.734Z,1007.14
2016-11-01T00:45:36.009Z,1007.12
2016-11-01T00:46:46.001Z,1007.11
2016-11-01T00:47:56.018Z,1007.1
2016-11-01T00:49:06.318Z,1007.06
2016-11-01T00:50:16.596Z,1007.06
2016-11-01T00:51:26.887Z,1007.07
2016-11-01T00:52:36.573Z,1007.03
2016-11-01T00:53:46.852Z,1007.04
2016-11-01T00:54:56.836Z,1007.08
2016-11-01T00:56:07.370Z,1007.06
2016-11-01T00:57:17.051Z,1007.03
2016-11-01T00:58:27.348Z,1007.01
2016-11-01T00:59:37.635Z,1007.01
2016-11-01T01:00:47.960Z,1007.01
2016-11-01T01:01:58.242Z,1006.99
2016-11-01T01:03:08.528Z,1007.01
2016-11-01T01:04:18.508Z,1007.01
2016-11-01T01:05:28.477Z,1006.98
2016-11-01T01:06:38.449Z,1006.95
2016-11-01T01:07:48.740Z,1006.95
2016-11-01T01:08:59.027Z,1006.94
2016-11-01T01:10:08.719Z,1006.93
2016-11-01T01:11:18.690Z,1006.89
2016-11-01T01:12:27.738Z,1006.93
2016-11-01T01:13:37.710Z,1006.87
2016-11-01T01:14:47.381Z,1006.86
2016-11-01T01:15:57.057Z,1006.87
2016-11-01T01:17:07.051Z,1006.85
2016-11-01T01:18:17.342Z,1006.78
2016-11-01T01:19:27.316Z,1006.75
2016-11-01T01:20:37.609Z,1006.79
2016-11-01T01:21:47.896Z,1006.74
2016-11-01T01:22:57.869Z,1006.76
2016-11-01T01:24:08.160Z,1006.69
2016-11-01T01:25:18.466Z,1006.67
2016-11-01T01:26:28.760Z,1006.68
2016-11-01T01:27:39.050Z,1006.69
2016-11-01T01:28:49.326Z,1006.68
2016-11-01T01:29:59.300Z,1006.66
2016-11-01T01:31:08.665Z,1006.63
2016-11-01T01:32:18.971Z,1006.65
2016-11-01T01:33:29.265Z,1006.62
2016-11-01T01:34:39.537Z,1006.64
2016-11-01T01:35:49.211Z,1006.61
2016-11-01T01:36:59.479Z,1006.59
2016-11-01T01:38:09.461Z,1006.6
2016-11-01T01:39:19.788Z,1006.6
2016-11-01T01:40:29.773Z,1006.61
2016-11-01T01:41:39.750Z,1006.61
2016-11-01T01:42:50.026Z,1006.59
2016-11-01T01:43:59.999Z,1006.58
2016-11-01T01:45:09.985Z,1006.65
2016-11-01T01:46:20.284Z,1006.62
2016-11-01T01:47:29.978Z,1006.63
2016-11-01T01:48:39.951Z,1006.6
2016-11-01T01:49:50.227Z,1006.54
2016-11-01T01:50:59.898Z,1006.54
2016-11-01T01:52:10.191Z,1006.54
2016-11-01T01:53:20.178Z,1006.52
2016-11-01T01:54:30.497Z,1006.48
2016-11-01T01:55:40.490Z,1006.55
2016-11-01T01:56:50.791Z,1006.49
2016-11-01T01:58:01.089Z,1006.5
2016-11-01T01:59:11.085Z,1006.51
2016-11-01T02:00:21.377Z,1006.52
2016-11-01T02:01:31.661Z,1006.48
2016-11-01T02:02:41.938Z,1006.46
2016-11-01T02:03:51.925Z,1006.42
2016-11-01T02:05:02.225Z,1006.41
2016-11-01T02:06:12.517Z,1006.47
2016-11-01T02:07:22.492Z,1006.42
2016-11-01T02:08:32.479Z,1006.41
2016-11-01T02:09:42.454Z,1006.43
2016-11-01T02:10:52.743Z,1006.39
2016-11-01T02:12:02.766Z,1006.36
2016-11-01T02:13:13.071Z,1006.37
2016-11-01T02:14:23.049Z,1006.33
2016-11-01T02:15:33.340Z,1006.32
2016-11-01T02:16:43.340Z,1006.34
2016-11-01T02:17:53.628Z,1006.3
2016-11-01T02:19:03.295Z,1006.3
2016-11-01T02:20:13.266Z,1006.3
2016-11-01T02:21:23.543Z,1006.27
2016-11-01T02:22:33.855Z,1006.3
2016-11-01T02:23:44.161Z,1006.29
2016-11-01T02:24:53.838Z,1006.27
2016-11-01T02:26:04.170Z,1006.25
2016-11-01T02:27:14.185Z,1006.25
2016-11-01T02:28:24.469Z,1006.29
2016-11-01T02:29:34.765Z,1006.3
2016-11-01T02:30:44.733Z,1006.27
2016-11-01T02:31:54.714Z,1006.31
2016-11-01T02:33:05.011Z,1006.32
2016-11-01T02:34:15.312Z,1006.28
2016-11-01T02:35:25.009Z,1006.27
2016-11-01T02:36:35.309Z,1006.24
2016-11-01T02:37:44.972Z,1006.22
2016-11-01T02:38:54.952Z,1006.25
2016-11-01T02:40:04.935Z,1006.24
2016-11-01T02:41:15.206Z,1006.26
2016-11-01T02:42:25.174Z,1006.24
2016-11-01T02:43:35.165Z,1006.26
2016-11-01T02:44:45.178Z,1006.23
2016-11-01T02:45:55.163Z,1006.23
2016-11-01T02:47:05.459Z,1006.25
2016-11-01T02:48:15.762Z,1006.23
2016-11-01T02:49:26.058Z,1006.22
2016-11-01T02:50:36.347Z,1006.25
2016-11-01T02:51:46.327Z,1006.26
2016-11-01T02:52:56.603Z,1006.27
2016-11-01T02:54:06.586Z,1006.31
2016-11-01T02:55:16.558Z,1006.27
2016-11-01T02:56:26.854Z,1006.27
2016-11-01T02:57:36.834Z,1006.29
2016-11-01T02:58:46.801Z,1006.27
2016-11-01T02:59:56.784Z,1006.27
2016-11-01T03:01:06.478Z,1006.24
2016-11-01T03:32:06.550Z,1006.02
2016-11-01T03:33:16.818Z,1006.01
2016-11-01T03:34:26.494Z,1006.06
2016-11-01T03:35:36.791Z,1006.06
2016-11-01T03:36:47.103Z,1006.07
2016-11-01T03:37:57.398Z,1006.1
2016-11-01T03:39:07.367Z,1006.13
2016-11-01T03:40:17.346Z,1006.08
2016-11-01T03:41:27.340Z,1006.08
2016-11-01T03:42:37.666Z,1006.1
2016-11-01T03:43:48.006Z,1006.09
2016-11-01T03:44:58.282Z,1006.07
2016-11-01T03:46:08.820Z,1006.09
2016-11-01T03:47:19.113Z,1006.04
2016-11-01T03:48:29.091Z,1006.04
2016-11-01T03:49:39.381Z,1006.05
2016-11-01T03:50:49.673Z,1006
2016-11-01T03:51:59.658Z,1006.04
2016-11-01T03:53:09.949Z,1006.02
2016-11-01T03:54:20.225Z,1006.02
2016-11-01T03:55:30.509Z,1005.99
2016-11-01T03:56:40.485Z,1006.01
2016-11-01T03:57:50.822Z,1005.99
2016-11-01T03:59:01.108Z,1006
2016-11-01T04:00:11.120Z,1005.99
2016-11-01T04:01:21.398Z,1006.03
2016-11-01T04:02:31.677Z,1006.04
2016-11-01T04:03:41.695Z,1006.06
2016-11-01T04:04:51.982Z,1006.01
2016-11-01T04:06:02.269Z,1006.04
2016-11-01T04:07:12.560Z,1006
2016-11-01T04:08:22.543Z,1005.99
2016-11-01T04:09:32.238Z,1006.03
2016-11-01T04:10:41.920Z,1005.97
2016-11-01T04:11:52.196Z,1005.96
2016-11-01T04:13:02.182Z,1006
2016-11-01T04:14:12.515Z,1005.99
2016-11-01T04:15:22.798Z,1005.97
2016-11-01T04:16:33.086Z,1005.97
2016-11-01T04:17:43.060Z,1005.97
2016-11-01T04:18:53.337Z,1006.03
2016-11-01T04:20:03.656Z,1006.01
2016-11-01T04:21:13.948Z,1006.02
2016-11-01T04:22:24.243Z,1005.95
2016-11-01T04:23:33.605Z,1005.98
2016-11-01T04:24:43.903Z,1005.96
2016-11-01T04:25:54.192Z,1005.96
2016-11-01T04:27:04.485Z,1005.96
2016-11-01T04:28:14.770Z,1005.98
2016-11-01T04:29:25.057Z,1005.97
2016-11-01T04:30:35.029Z,1006.02
2016-11-01T04:31:45.327Z,1006.04
2016-11-01T04:32:55.606Z,1006.02
2016-11-01T04:34:05.894Z,1006.09
2016-11-01T04:35:15.915Z,1006.09
2016-11-01T04:36:26.237Z,1006.11
2016-11-01T04:37:36.530Z,1006.07
2016-11-01T04:38:46.831Z,1006.1
2016-11-01T04:39:57.109Z,1006.1
2016-11-01T04:41:07.145Z,1006.08
2016-11-01T04:42:17.448Z,1006.13
2016-11-01T04:43:27.433Z,1006.12
2016-11-01T04:44:37.760Z,1006.07
2016-11-01T04:45:47.771Z,1006.05
2016-11-01T04:46:58.052Z,1006.05
2016-11-01T04:48:07.715Z,1006.08
2016-11-01T04:49:18.036Z,1006.09
2016-11-01T04:50:28.325Z,1006.03
2016-11-01T04:51:38.615Z,1006.08
2016-11-01T04:52:48.935Z,1006.06
2016-11-01T04:53:59.230Z,1006.01
2016-11-01T04:55:09.504Z,1006.04
2016-11-01T04:56:19.488Z,1006.05
2016-11-01T04:57:29.796Z,1006.06
2016-11-01T04:58:39.779Z,1006.02
2016-11-01T04:59:49.742Z,1006.03
2016-11-01T05:01:00.028Z,1005.98
2016-11-01T05:02:10.049Z,1005.96
2016-11-01T05:03:20.066Z,1006
2016-11-01T05:04:30.363Z,1005.97
2016-11-01T05:05:40.654Z,1005.96
2016-11-01T05:06:50.961Z,1005.99
2016-11-01T05:08:01.247Z,1005.99
2016-11-01T05:09:11.534Z,1006
2016-11-01T05:10:21.516Z,1005.99
2016-11-01T05:11:31.847Z,1006.04
2016-11-01T05:12:41.864Z,1006.08
2016-11-01T05:13:52.152Z,1006.03
2016-11-01T05:15:01.820Z,1006.02
2016-11-01T05:16:11.793Z,1006.06
2016-11-01T05:17:21.774Z,1006.09
2016-11-01T05:18:32.053Z,1006.08
2016-11-01T05:19:42.026Z,1006.11
2016-11-01T05:20:51.991Z,1006.1
2016-11-01T05:22:02.293Z,1006.13
2016-11-01T05:23:12.294Z,1006.12
2016-11-01T05:24:22.561Z,1006.12
2016-11-01T05:25:32.861Z,1006.1
2016-11-01T05:26:42.824Z,1006.13
2016-11-01T05:27:53.120Z,1006.08
2016-11-01T05:29:03.396Z,1006.09
2016-11-01T05:30:13.673Z,1006.09
2016-11-01T05:31:23.955Z,1006.14
2016-11-01T05:32:34.241Z,1006.04
2016-11-01T05:33:44.517Z,1006.04
2016-11-01T05:34:54.542Z,1006.06
2016-11-01T05:36:04.539Z,1006.03
2016-11-01T05:37:14.207Z,1006.07
2016-11-01T05:38:24.514Z,1006.1
2016-11-01T05:39:34.825Z,1006.06
2016-11-01T05:40:44.508Z,1006.05
2016-11-01T05:41:54.797Z,1006.05
2016-11-01T05:43:04.457Z,1006.09
2016-11-01T05:44:14.735Z,1006.11
2016-11-01T05:45:24.402Z,1006.15
2016-11-01T05:46:34.393Z,1006.11
2016-11-01T05:47:44.045Z,1006.14
2016-11-01T05:48:54.328Z,1006.15
2016-11-01T05:50:04.303Z,1006.1
2016-11-01T05:51:14.278Z,1006.16
2016-11-01T05:52:24.556Z,1006.16
2016-11-01T05:53:34.541Z,1006.19
2016-11-01T05:54:44.837Z,1006.16
2016-11-01T05:55:54.810Z,1006.13
2016-11-01T05:57:04.792Z,1006.18
2016-11-01T05:58:14.767Z,1006.2
2016-11-01T05:59:24.730Z,1006.16
2016-11-01T06:00:34.704Z,1006.19
2016-11-01T06:01:44.734Z,1006.22
2016-11-01T06:02:55.030Z,1006.19
2016-11-01T06:04:05.310Z,1006.21
2016-11-01T06:05:15.308Z,1006.22
2016-11-01T06:06:25.602Z,1006.2
2016-11-01T06:07:35.604Z,1006.19
2016-11-01T06:08:45.895Z,1006.22
2016-11-01T06:09:55.593Z,1006.24
2016-11-01T06:11:05.261Z,1006.2
2016-11-01T06:12:15.231Z,1006.22
2016-11-01T06:13:25.212Z,1006.24
2016-11-01T06:14:35.487Z,1006.25
2016-11-01T06:15:45.519Z,1006.25
2016-11-01T06:16:55.807Z,1006.25
2016-11-01T06:18:05.798Z,1006.23
2016-11-01T06:19:16.074Z,1006.25
2016-11-01T06:20:26.064Z,1006.25
2016-11-01T06:21:36.340Z,1006.26
2016-11-01T06:22:46.302Z,1006.32
2016-11-01T06:23:56.278Z,1006.27
2016-11-01T06:25:06.564Z,1006.32
2016-11-01T06:26:16.848Z,1006.31
2016-11-01T06:27:27.146Z,1006.31
2016-11-01T06:28:37.439Z,1006.28
2016-11-01T06:29:47.735Z,1006.31
2016-11-01T06:30:57.702Z,1006.29
2016-11-01T06:32:07.974Z,1006.3
2016-11-01T06:33:18.245Z,1006.29
2016-11-01T06:34:28.534Z,1006.29
2016-11-01T06:35:38.818Z,1006.28
2016-11-01T06:36:49.093Z,1006.28
2016-11-01T06:37:59.397Z,1006.31
2016-11-01T06:39:09.696Z,1006.3
2016-11-01T06:40:20.017Z,1006.31
2016-11-01T06:41:29.684Z,1006.34
2016-11-01T06:42:39.980Z,1006.32
2016-11-01T06:43:49.959Z,1006.28
2016-11-01T06:45:00.278Z,1006.26
2016-11-01T06:46:10.269Z,1006.28
2016-11-01T06:47:20.553Z,1006.29
2016-11-01T06:48:30.534Z,1006.28
2016-11-01T06:49:40.513Z,1006.32
2016-11-01T06:50:50.536Z,1006.31
2016-11-01T06:52:00.811Z,1006.31
2016-11-01T06:53:10.783Z,1006.29
2016-11-01T06:54:20.457Z,1006.25
2016-11-01T06:55:30.743Z,1006.32
2016-11-01T06:56:41.034Z,1006.27
2016-11-01T06:57:51.320Z,1006.27
2016-11-01T06:59:00.999Z,1006.31
2016-11-01T07:00:10.977Z,1006.32
2016-11-01T07:01:20.998Z,1006.33
2016-11-01T07:02:31.009Z,1006.33
2016-11-01T07:03:40.990Z,1006.31
2016-11-01T07:04:51.288Z,1006.33
2016-11-01T07:06:01.283Z,1006.32
2016-11-01T07:07:10.645Z,1006.27
2016-11-01T07:08:20.938Z,1006.28
2016-11-01T07:09:30.909Z,1006.29
2016-11-01T07:10:41.240Z,1006.24
2016-11-01T07:11:51.522Z,1006.27
2016-11-01T07:13:01.827Z,1006.23
2016-11-01T07:14:11.836Z,1006.3
2016-11-01T07:15:22.113Z,1006.24
2016-11-01T07:16:31.775Z,1006.28
2016-11-01T07:17:42.063Z,1006.25
2016-11-01T07:18:52.034Z,1006.25
2016-11-01T07:20:02.320Z,1006.24
2016-11-01T07:21:12.310Z,1006.21
2016-11-01T07:22:22.614Z,1006.26
2016-11-01T07:23:32.904Z,1006.22
2016-11-01T07:24:43.201Z,1006.24
2016-11-01T07:25:53.484Z,1006.18
2016-11-01T07:27:03.780Z,1006.18
2016-11-01T07:28:14.076Z,1006.22
2016-11-01T07:29:24.358Z,1006.18
2016-11-01T07:30:34.660Z,1006.19
2016-11-01T07:31:44.325Z,1006.16
2016-11-01T07:32:54.304Z,1006.16
2016-11-01T07:34:03.971Z,1006.15
2016-11-01T07:35:14.271Z,1006.14
2016-11-01T07:36:24.573Z,1006.13
2016-11-01T07:37:34.871Z,1006.14
2016-11-01T07:38:45.153Z,1006.14
2016-11-01T07:39:54.823Z,1006.14
2016-11-01T07:41:05.121Z,1006.15
2016-11-01T07:42:15.107Z,1006.17
2016-11-01T07:43:25.426Z,1006.17
2016-11-01T07:44:35.421Z,1006.14
2016-11-01T07:45:45.722Z,1006.15
2016-11-01T07:46:55.707Z,1006.12
2016-11-01T07:48:05.708Z,1006.12
2016-11-01T07:49:15.690Z,1006.16
2016-11-01T07:50:25.977Z,1006.13
2016-11-01T07:51:35.984Z,1006.14
2016-11-01T07:52:45.666Z,1006.12
2016-11-01T07:53:55.333Z,1006.11
2016-11-01T07:55:05.625Z,1006.14
2016-11-01T07:56:15.302Z,1006.12
2016-11-01T07:57:25.289Z,1006.05
2016-11-01T07:58:35.266Z,1006.05
2016-11-01T07:59:45.554Z,1006.07
2016-11-01T08:00:55.570Z,1006.02
2016-11-01T08:02:05.853Z,1005.97
2016-11-01T08:03:16.170Z,1006.02
2016-11-01T08:04:26.469Z,1006.06
2016-11-01T08:05:36.783Z,1006.04
2016-11-01T08:06:46.136Z,1006
2016-11-01T08:07:56.428Z,1006.04
2016-11-01T08:09:06.109Z,1006.02
2016-11-01T08:10:15.781Z,1006.03
2016-11-01T08:11:25.773Z,1006.01
2016-11-01T08:12:35.465Z,1005.99
2016-11-01T08:13:45.447Z,1005.99
2016-11-01T08:14:55.441Z,1005.98
2016-11-01T08:16:05.741Z,1005.95
2016-11-01T08:17:15.738Z,1005.97
2016-11-01T08:18:25.715Z,1005.97
2016-11-01T08:19:35.693Z,1005.93
2016-11-01T08:20:45.984Z,1005.94
2016-11-01T08:21:56.302Z,1005.87
2016-11-01T08:23:06.598Z,1005.87
2016-11-01T08:24:16.598Z,1005.86
2016-11-01T08:25:26.265Z,1005.85
2016-11-01T08:26:36.555Z,1005.83
2016-11-01T08:27:46.222Z,1005.87
2016-11-01T08:28:56.517Z,1005.83
2016-11-01T08:30:06.802Z,1005.81
2016-11-01T08:31:16.787Z,1005.84
2016-11-01T08:32:26.778Z,1005.84
2016-11-01T08:33:36.770Z,1005.83
2016-11-01T08:34:46.433Z,1005.85
2016-11-01T08:35:56.726Z,1005.85
2016-11-01T08:37:07.016Z,1005.8
2016-11-01T08:38:16.718Z,1005.83
2016-11-01T08:39:26.401Z,1005.84
2016-11-01T08:40:36.068Z,1005.82
2016-11-01T08:41:45.744Z,1005.84
2016-11-01T08:42:55.416Z,1005.82
2016-11-01T08:44:05.713Z,1005.8
2016-11-01T08:45:16.011Z,1005.83
2016-11-01T08:46:26.296Z,1005.82
2016-11-01T08:47:36.588Z,1005.79
2016-11-01T08:48:46.582Z,1005.8
2016-11-01T08:49:56.877Z,1005.78
2016-11-01T08:51:07.211Z,1005.75
2016-11-01T08:52:17.202Z,1005.76
2016-11-01T08:53:26.898Z,1005.74
2016-11-01T08:54:36.620Z,1005.75
2016-11-01T08:55:46.906Z,1005.73
2016-11-01T08:56:56.948Z,1005.73
2016-11-01T08:58:06.921Z,1005.72
2016-11-01T08:59:17.480Z,1005.68
2016-11-01T09:00:27.468Z,1005.68
2016-11-01T09:01:37.145Z,1005.67
2016-11-01T09:02:47.445Z,1005.66
2016-11-01T09:03:57.751Z,1005.71
2016-11-01T09:05:07.733Z,1005.64
2016-11-01T09:06:17.421Z,1005.64
2016-11-01T09:07:27.708Z,1005.64
2016-11-01T09:08:38.004Z,1005.69
2016-11-01T09:09:48.336Z,1005.65
2016-11-01T09:10:58.319Z,1005.66
2016-11-01T09:12:07.709Z,1005.63
2016-11-01T09:13:18.032Z,1005.64
2016-11-01T09:14:28.328Z,1005.59
2016-11-01T09:15:38.607Z,1005.58
2016-11-01T09:16:48.283Z,1005.58
2016-11-01T09:17:58.616Z,1005.57
2016-11-01T09:19:08.916Z,1005.54
2016-11-01T09:20:18.939Z,1005.56
2016-11-01T09:21:28.609Z,1005.55
2016-11-01T09:22:38.589Z,1005.55
2016-11-01T09:23:48.911Z,1005.55
2016-11-01T09:24:58.903Z,1005.57
2016-11-01T09:26:08.579Z,1005.52
2016-11-01T09:27:17.950Z,1005.53
2016-11-01T09:28:27.626Z,1005.49
2016-11-01T09:29:37.616Z,1005.48
2016-11-01T09:30:47.916Z,1005.51
2016-11-01T09:31:58.216Z,1005.48
2016-11-01T09:33:08.519Z,1005.53
2016-11-01T09:34:18.835Z,1005.53
2016-11-01T09:35:29.155Z,1005.47
2016-11-01T09:36:39.447Z,1005.45
2016-11-01T09:37:49.463Z,1005.42
2016-11-01T09:38:59.750Z,1005.39
2016-11-01T09:40:09.741Z,1005.43
2016-11-01T09:41:19.806Z,1005.41
2016-11-01T09:42:29.804Z,1005.38
2016-11-01T09:43:39.815Z,1005.33
2016-11-01T09:44:50.108Z,1005.36
2016-11-01T09:46:00.130Z,1005.38
2016-11-01T09:47:10.425Z,1005.35
2016-11-01T09:48:20.433Z,1005.31
2016-11-01T09:49:30.739Z,1005.32
2016-11-01T09:50:40.421Z,1005.26
2016-11-01T09:51:50.409Z,1005.29
2016-11-01T09:53:00.712Z,1005.26
2016-11-01T09:54:10.399Z,1005.23
2016-11-01T09:55:20.413Z,1005.22
2016-11-01T09:56:30.714Z,1005.14
2016-11-01T09:57:40.397Z,1005.13
2016-11-01T09:58:50.682Z,1005.18
2016-11-01T10:00:00.699Z,1005.11
2016-11-01T10:01:10.704Z,1005.1
2016-11-01T10:02:20.430Z,1005.04
2016-11-01T10:03:30.744Z,1005.02
2016-11-01T10:04:40.755Z,1004.97
2016-11-01T10:05:50.744Z,1004.97
2016-11-01T10:07:01.053Z,1004.97
2016-11-01T10:08:11.340Z,1004.99
2016-11-01T10:09:21.392Z,1004.93
2016-11-01T10:10:31.697Z,1004.91
2016-11-01T10:11:41.711Z,1004.87
2016-11-01T10:12:51.720Z,1004.89
2016-11-01T10:14:02.071Z,1004.89
2016-11-01T10:15:12.399Z,1004.91
2016-11-01T10:16:22.381Z,1004.87
2016-11-01T10:17:32.383Z,1004.84
2016-11-01T10:18:42.385Z,1004.84
2016-11-01T10:19:52.686Z,1004.8
2016-11-01T10:21:02.988Z,1004.82
2016-11-01T10:22:13.077Z,1004.78
2016-11-01T10:23:23.376Z,1004.77
2016-11-01T10:24:33.083Z,1004.73
2016-11-01T10:25:43.387Z,1004.69
2016-11-01T10:26:53.402Z,1004.72
2016-11-01T10:28:03.395Z,1004.7
2016-11-01T10:29:13.367Z,1004.7
2016-11-01T10:30:23.361Z,1004.69
2016-11-01T10:31:33.357Z,1004.67
2016-11-01T10:32:43.028Z,1004.66
2016-11-01T10:33:53.098Z,1004.63
2016-11-01T10:35:03.145Z,1004.59
2016-11-01T10:36:13.146Z,1004.58
2016-11-01T10:37:23.187Z,1004.57
2016-11-01T10:38:33.509Z,1004.52
2016-11-01T10:39:43.805Z,1004.52
2016-11-01T10:40:54.104Z,1004.47
2016-11-01T10:42:04.105Z,1004.48
2016-11-01T10:43:14.401Z,1004.41
2016-11-01T10:44:24.104Z,1004.41
2016-11-01T10:45:34.403Z,1004.41
2016-11-01T10:46:44.394Z,1004.39
2016-11-01T10:47:54.696Z,1004.32
2016-11-01T10:49:04.987Z,1004.29
2016-11-01T10:50:14.705Z,1004.29
2016-11-01T10:51:25.006Z,1004.28
2016-11-01T10:52:35.293Z,1004.25
2016-11-01T10:53:45.283Z,1004.24
2016-11-01T10:54:55.642Z,1004.18
2016-11-01T10:56:05.333Z,1004.19
2016-11-01T10:57:15.339Z,1004.17
2016-11-01T10:58:25.335Z,1004.16
2016-11-01T10:59:34.708Z,1004.09
2016-11-01T11:00:44.699Z,1004.08
2016-11-01T11:01:55.006Z,1004.06
2016-11-01T11:03:05.008Z,1004.03
2016-11-01T11:04:14.375Z,1003.97
2016-11-01T11:05:24.701Z,1003.98
2016-11-01T11:06:35.010Z,1003.94
2016-11-01T11:07:45.007Z,1003.89
2016-11-01T11:08:55.360Z,1003.92
2016-11-01T11:10:05.377Z,1003.88
2016-11-01T11:11:15.669Z,1003.86
2016-11-01T11:12:25.957Z,1003.84
2016-11-01T11:13:36.288Z,1003.8
2016-11-01T11:14:46.585Z,1003.83
2016-11-01T11:15:56.597Z,1003.81
2016-11-01T11:17:06.893Z,1003.77
2016-11-01T11:18:17.213Z,1003.78
2016-11-01T11:19:27.242Z,1003.74
2016-11-01T11:20:37.558Z,1003.71
2016-11-01T11:21:47.553Z,1003.75
2016-11-01T11:22:57.538Z,1003.69
2016-11-01T11:24:07.524Z,1003.64
2016-11-01T11:25:17.511Z,1003.65
2016-11-01T11:26:27.506Z,1003.65
2016-11-01T11:27:37.488Z,1003.68
2016-11-01T11:28:47.197Z,1003.64
2016-11-01T11:29:57.193Z,1003.63
2016-11-01T11:31:06.921Z,1003.6
2016-11-01T11:32:17.214Z,1003.56
2016-11-01T11:33:27.510Z,1003.54
2016-11-01T11:34:37.194Z,1003.51
2016-11-01T11:35:47.482Z,1003.5
2016-11-01T11:36:57.469Z,1003.5
2016-11-01T11:38:07.779Z,1003.46
2016-11-01T11:39:17.781Z,1003.44
2016-11-01T11:40:27.759Z,1003.42
2016-11-01T11:41:37.767Z,1003.4
2016-11-01T11:42:48.086Z,1003.39
2016-11-01T11:43:58.089Z,1003.42
2016-11-01T11:45:08.389Z,1003.34
2016-11-01T11:46:18.702Z,1003.34
2016-11-01T11:47:28.702Z,1003.33
2016-11-01T11:48:38.702Z,1003.31
2016-11-01T11:49:48.691Z,1003.31
2016-11-01T11:50:58.678Z,1003.28
2016-11-01T11:52:08.059Z,1003.27
2016-11-01T11:53:18.066Z,1003.24
2016-11-01T11:54:28.068Z,1003.26
2016-11-01T11:55:38.045Z,1003.21
2016-11-01T11:56:48.326Z,1003.21
2016-11-01T11:57:58.622Z,1003.23
2016-11-01T11:59:08.625Z,1003.16
2016-11-01T12:00:18.926Z,1003.13
2016-11-01T12:01:29.226Z,1003.12
2016-11-01T12:02:39.210Z,1003.11
2016-11-01T12:03:49.220Z,1003.07
2016-11-01T12:04:59.212Z,1003.1
2016-11-01T12:06:09.505Z,1003.06
2016-11-01T12:07:19.799Z,1003.04
2016-11-01T12:08:29.478Z,1003.06
2016-11-01T12:09:39.462Z,1003.01
2016-11-01T12:10:49.457Z,1003.05
2016-11-01T12:11:59.756Z,1003.03
2016-11-01T12:13:09.754Z,1002.99
2016-11-01T12:14:20.058Z,1002.92
2016-11-01T12:15:30.351Z,1002.91
2016-11-01T12:16:40.346Z,1002.93
2016-11-01T12:17:50.635Z,1002.9
2016-11-01T12:19:00.961Z,1002.87
2016-11-01T12:20:11.256Z,1002.87
2016-11-01T12:21:21.563Z,1002.85
2016-11-01T12:22:31.569Z,1002.86
2016-11-01T12:23:41.887Z,1002.85
2016-11-01T12:24:52.183Z,1002.79
2016-11-01T12:26:02.476Z,1002.77
2016-11-01T12:27:12.779Z,1002.74
2016-11-01T12:28:23.119Z,1002.7
2016-11-01T12:29:33.413Z,1002.69
2016-11-01T12:30:43.388Z,1002.69
2016-11-01T12:31:53.093Z,1002.67
2016-11-01T12:33:03.074Z,1002.71
2016-11-01T12:34:13.069Z,1002.64
2016-11-01T12:35:23.361Z,1002.66
2016-11-01T12:36:33.659Z,1002.62
2016-11-01T12:37:43.349Z,1002.59
2016-11-01T12:38:53.353Z,1002.59
2016-11-01T12:40:03.658Z,1002.56
2016-11-01T12:41:13.950Z,1002.57
2016-11-01T12:42:24.257Z,1002.54
2016-11-01T12:43:33.944Z,1002.55
2016-11-01T12:44:44.258Z,1002.56
2016-11-01T12:45:54.293Z,1002.49
2016-11-01T12:47:04.617Z,1002.48
2016-11-01T12:48:14.301Z,1002.45
2016-11-01T12:49:24.588Z,1002.44
2016-11-01T12:50:34.278Z,1002.41
2016-11-01T12:51:44.574Z,1002.4
2016-11-01T12:52:54.861Z,1002.38
2016-11-01T12:54:04.876Z,1002.4
2016-11-01T12:55:15.193Z,1002.38
2016-11-01T12:56:24.886Z,1002.37
2016-11-01T12:57:35.357Z,1002.35
2016-11-01T12:58:49.087Z,1002.37
2016-11-01T13:00:03.451Z,1002.31
2016-11-01T13:01:17.362Z,1002.31
2016-11-01T13:02:31.975Z,1002.32
2016-11-01T13:03:42.191Z,1002.34
2016-11-01T13:04:55.598Z,1002.31
2016-11-01T13:06:09.751Z,1002.3
2016-11-01T13:07:24.464Z,1002.3
2016-11-01T13:08:34.767Z,1002.26
2016-11-01T13:09:44.764Z,1002.26
2016-11-01T13:10:54.765Z,1002.23
2016-11-01T13:12:04.755Z,1002.23
2016-11-01T13:13:15.072Z,1002.23
2016-11-01T13:14:24.759Z,1002.18
2016-11-01T13:15:34.763Z,1002.14
2016-11-01T13:16:44.756Z,1002.11
2016-11-01T13:17:54.472Z,1002.1
2016-11-01T13:19:04.801Z,1002.1
2016-11-01T13:20:15.127Z,1002.08
2016-11-01T13:21:25.432Z,1002.05
2016-11-01T13:22:35.431Z,1002.02
2016-11-01T13:23:45.435Z,1002.01
2016-11-01T13:24:55.732Z,1001.98
2016-11-01T13:26:05.776Z,1001.95
2016-11-01T13:27:15.772Z,1001.9
2016-11-01T13:28:25.765Z,1001.94
2016-11-01T13:29:36.059Z,1001.97
2016-11-01T13:30:46.384Z,1001.92
2016-11-01T13:31:56.675Z,1001.94
2016-11-01T13:33:06.686Z,1001.9
2016-11-01T13:34:16.684Z,1001.85
2016-11-01T13:35:26.675Z,1001.88
2016-11-01T13:36:36.659Z,1001.87
2016-11-01T13:37:46.976Z,1001.86
2016-11-01T13:38:56.971Z,1001.84
2016-11-01T13:40:07.265Z,1001.82
2016-11-01T13:41:17.564Z,1001.79
2016-11-01T13:42:27.859Z,1001.78
2016-11-01T13:43:37.843Z,1001.7
2016-11-01T13:44:47.836Z,1001.71
2016-11-01T13:45:57.808Z,1001.71
2016-11-01T13:47:08.143Z,1001.73
2016-11-01T13:48:18.430Z,1001.63
2016-11-01T13:49:27.815Z,1001.65
2016-11-01T13:50:37.498Z,1001.66
2016-11-01T13:51:47.510Z,1001.66
2016-11-01T13:52:57.797Z,1001.6
2016-11-01T13:54:07.785Z,1001.61
2016-11-01T13:55:18.104Z,1001.59
2016-11-01T13:56:28.093Z,1001.61
2016-11-01T13:57:38.405Z,1001.59
2016-11-01T13:58:48.396Z,1001.59
2016-11-01T13:59:58.383Z,1001.55
2016-11-01T14:01:08.093Z,1001.48
2016-11-01T14:02:18.109Z,1001.49
2016-11-01T14:03:28.126Z,1001.47
2016-11-01T14:04:38.428Z,1001.41
2016-11-01T14:05:47.851Z,1001.38
2016-11-01T14:06:57.232Z,1001.39
2016-11-01T14:08:07.530Z,1001.33
2016-11-01T14:09:17.220Z,1001.36
2016-11-01T14:10:27.209Z,1001.35
2016-11-01T14:11:37.505Z,1001.38
2016-11-01T14:12:47.813Z,1001.4
2016-11-01T14:13:57.795Z,1001.35
2016-11-01T14:15:07.471Z,1001.32
2016-11-01T14:16:17.762Z,1001.32
2016-11-01T14:17:28.076Z,1001.29
2016-11-01T14:18:38.370Z,1001.31
2016-11-01T14:19:48.081Z,1001.29
2016-11-01T14:20:58.072Z,1001.26
2016-11-01T14:22:08.357Z,1001.23
2016-11-01T14:23:18.325Z,1001.21
2016-11-01T14:24:28.631Z,1001.19
2016-11-01T14:25:38.929Z,1001.18
2016-11-01T14:26:49.233Z,1001.15
2016-11-01T14:27:59.230Z,1001.13
2016-11-01T14:29:08.608Z,1001.09
2016-11-01T14:30:18.595Z,1001.07
2016-11-01T14:31:28.285Z,1001.08
2016-11-01T14:32:38.286Z,1001.06
2016-11-01T14:33:47.964Z,1001.06
2016-11-01T14:34:58.285Z,1001.06
2016-11-01T14:36:08.306Z,1001.02
2016-11-01T14:37:18.606Z,1000.98
2016-11-01T14:38:28.597Z,1000.98
2016-11-01T14:39:38.581Z,1000.98
2016-11-01T14:40:48.263Z,1000.9